Time;durP1;ratioP1;P1;durP2;ratioP2;P2;SDS_P1;SDS_P2;PMS_P1;PMS_P2;Temp;Humidity;BMP_temperature;BMP_pressure;BME280_temperature;BME280_humidity;BME280_pressure;Samples;Min_cycle;Max_cycle;Signal;HPM_P1;HPM_P2
2022/01/18 00:01:52;;;;;;;16.85;3.75;;;;;;;5.07;74.23;103961.22;4981190;28;20129;-59
2022/01/18 00:04:19;;;;;;;17.35;3.70;;;;;;;5.11;74.01;103959.03;4968762;28;20042;-59
2022/01/18 00:06:49;;;;;;;21.50;4.20;;;;;;;5.07;74.60;103963.81;4979197;28;20124;-60
2022/01/18 00:09:15;;;;;;;16.65;3.72;;;;;;;5.06;74.23;103967.19;4970403;28;20563;-59
2022/01/18 00:11:46;;;;;;;16.75;3.25;;;;;;;5.04;74.82;103968.72;4981320;28;20124;-60
2022/01/18 00:14:23;;;;;;;19.98;4.00;;;;;;;5.00;73.97;103966.69;4972198;28;20271;-59
2022/01/18 00:17:03;;;;;;;16.13;3.38;;;;;;;4.99;74.55;103970.03;4983905;28;20050;-60
2022/01/18 00:19:28;;;;;;;14.18;3.17;;;;;;;4.95;74.40;103961.09;4982303;28;20041;-59
2022/01/18 00:22:10;;;;;;;13.27;3.45;;;;;;;4.92;74.07;103963.44;4984007;28;21024;-59
2022/01/18 00:24:36;;;;;;;16.45;3.30;;;;;;;4.85;74.60;103971.44;4974074;28;20042;-59
2022/01/18 00:27:02;;;;;;;13.73;3.25;;;;;;;4.87;74.39;103975.06;4988540;28;20444;-59
2022/01/18 00:29:29;;;;;;;19.20;3.88;;;;;;;4.97;74.46;103981.91;4979228;28;20038;-59
2022/01/18 00:32:19;;;;;;;23.17;4.28;;;;;;;4.95;74.79;103980.84;4984383;28;20077;-59
2022/01/18 00:34:49;;;;;;;14.40;3.30;;;;;;;4.93;74.18;103980.75;4979738;28;20261;-60
2022/01/18 00:37:32;;;;;;;17.27;3.45;;;;;;;4.93;74.32;103979.84;4984069;28;20495;-59
2022/01/18 00:39:57;;;;;;;16.30;4.03;;;;;;;4.85;74.52;103979.19;4979645;28;20053;-59
2022/01/18 00:42:23;;;;;;;11.10;3.80;;;;;;;4.81;74.46;103975.44;4964332;28;20040;-59
2022/01/18 00:44:48;;;;;;;13.27;3.70;;;;;;;4.75;74.46;103976.59;4978332;28;20246;-59
2022/01/18 00:47:14;;;;;;;18.92;4.10;;;;;;;4.69;74.57;103970.91;4979332;28;20061;-60
2022/01/18 00:49:45;;;;;;;15.27;3.75;;;;;;;4.66;74.28;103968.94;4988498;28;20038;-60
2022/01/18 00:52:11;;;;;;;14.52;4.00;;;;;;;4.65;74.57;103987.78;4977250;28;20124;-58
2022/01/18 00:54:40;;;;;;;18.58;4.53;;;;;;;4.63;74.13;103978.13;4981338;28;20515;-58
2022/01/18 00:57:06;;;;;;;16.60;4.50;;;;;;;4.60;74.91;103976.16;4969066;28;20352;-57
2022/01/18 00:59:32;;;;;;;16.70;3.83;;;;;;;4.64;74.29;103975.63;4982698;28;20572;-59
2022/01/18 01:01:58;;;;;;;16.67;4.43;;;;;;;4.62;74.43;103976.31;4983911;28;20104;-59
2022/01/18 01:04:27;;;;;;;16.30;3.90;;;;;;;4.65;74.44;103979.13;4961361;28;20058;-60
2022/01/18 01:06:52;;;;;;;14.35;4.03;;;;;;;4.67;74.59;103965.59;4980587;28;20236;-60
2022/01/18 01:09:18;;;;;;;15.20;3.58;;;;;;;4.67;74.63;103967.25;4985700;28;20195;-59
2022/01/18 01:11:43;;;;;;;14.30;3.15;;;;;;;4.66;74.44;103963.78;4978379;28;20236;-59
2022/01/18 01:14:15;;;;;;;15.38;3.55;;;;;;;4.62;74.60;103959.13;4979106;28;20053;-59
2022/01/18 01:19:50;;;;;;;15.15;3.75;;;;;;;4.64;74.59;103959.22;4985265;28;20515;-60
2022/01/18 01:36:34;;;;;;;17.70;3.88;;;;;;;4.62;74.03;103960.78;4985101;28;20473;-59
2022/01/18 01:46:27;;;;;;;11.95;3.70;;;;;;;4.58;74.44;103957.03;4982011;28;20072;-61
2022/01/18 01:48:55;;;;;;;13.73;3.25;;;;;;;4.58;74.10;103961.28;4983638;28;20049;-60
2022/01/18 01:51:28;;;;;;;13.60;3.53;;;;;;;4.53;74.62;103962.56;4982321;28;20046;-59
2022/01/18 01:53:54;;;;;;;12.27;3.40;;;;;;;4.52;74.33;103964.25;4981485;28;20531;-59
2022/01/18 01:56:19;;;;;;;12.07;3.88;;;;;;;4.49;74.51;103967.47;4953717;28;20046;-60
2022/01/18 01:58:44;;;;;;;11.00;3.22;;;;;;;4.52;74.37;103974.56;4980389;28;20121;-61
2022/01/18 02:01:10;;;;;;;13.43;3.63;;;;;;;4.47;74.33;103970.69;4983018;28;20050;-59
2022/01/18 02:03:35;;;;;;;15.10;3.65;;;;;;;4.51;74.01;103974.47;4980509;28;20046;-59
2022/01/18 02:06:02;;;;;;;22.90;4.10;;;;;;;4.50;74.52;103981.31;4975516;28;20049;-60
2022/01/18 02:08:28;;;;;;;15.88;3.75;;;;;;;4.48;74.04;103968.25;4983268;28;20433;-61
2022/01/18 02:10:53;;;;;;;16.27;4.35;;;;;;;4.48;74.12;103964.75;4983393;28;20050;-60
2022/01/18 02:13:19;;;;;;;10.20;3.15;;;;;;;4.47;74.18;103970.69;4983079;28;20116;-60
2022/01/18 02:16:12;;;;;;;16.08;3.95;;;;;;;4.49;74.30;103964.91;4980138;28;20049;-60
2022/01/18 02:24:06;;;;;;;11.77;3.42;;;;;;;4.38;74.22;103973.41;4966675;28;20068;-60
2022/01/18 02:26:32;;;;;;;12.32;3.78;;;;;;;4.35;74.05;103967.03;4965038;28;20165;-60
2022/01/18 02:29:02;;;;;;;11.13;3.60;;;;;;;4.31;74.58;103970.13;4969771;28;20061;-59
2022/01/18 02:31:28;;;;;;;14.82;3.78;;;;;;;4.28;74.19;103962.09;4981933;28;20064;-59
2022/01/18 02:33:53;;;;;;;9.13;3.30;;;;;;;4.27;74.04;103963.78;4965781;28;20045;-58
2022/01/18 02:36:19;;;;;;;12.77;4.28;;;;;;;4.26;74.24;103964.56;4975636;28;20100;-59
2022/01/18 02:38:46;;;;;;;10.18;3.53;;;;;;;4.28;74.51;103969.84;4979946;28;20101;-59
2022/01/18 02:41:30;;;;;;;14.05;3.63;;;;;;;4.28;74.17;103960.44;4979170;28;20516;-59
2022/01/18 02:44:09;;;;;;;12.50;3.60;;;;;;;4.29;74.20;103958.75;4978971;28;20049;-58
2022/01/18 02:46:35;;;;;;;15.02;3.92;;;;;;;4.31;74.80;103963.28;4979966;28;20061;-59
2022/01/18 02:49:02;;;;;;;15.25;4.00;;;;;;;4.27;75.27;103957.72;4967736;28;20619;-60
2022/01/18 02:51:28;;;;;;;13.02;4.40;;;;;;;4.25;75.03;103961.84;4984356;28;20079;-60
2022/01/18 02:54:00;;;;;;;18.67;4.25;;;;;;;4.28;74.59;103965.59;4975904;28;20114;-59
2022/01/18 02:56:31;;;;;;;13.80;3.80;;;;;;;4.33;74.97;103964.31;4975735;28;20519;-59
2022/01/18 02:59:07;;;;;;;26.52;4.97;;;;;;;4.44;75.22;103973.03;4977320;28;20037;-59
2022/01/18 03:04:17;;;;;;;15.10;4.35;;;;;;;4.54;75.04;103961.81;4971662;28;20115;-58
2022/01/18 03:06:42;;;;;;;27.75;4.75;;;;;;;4.54;75.28;103962.72;4981696;28;20463;-60
2022/01/18 03:09:08;;;;;;;20.90;4.90;;;;;;;4.56;75.51;103958.59;4982729;28;20495;-61
2022/01/18 03:11:33;;;;;;;21.48;5.10;;;;;;;4.58;75.07;103945.78;4982925;28;20044;-59
2022/01/18 03:13:59;;;;;;;30.02;5.43;;;;;;;4.55;75.58;103956.78;4973300;28;20470;-60
2022/01/18 03:16:24;;;;;;;23.63;5.57;;;;;;;4.56;75.44;103955.09;4972017;28;20046;-59
2022/01/18 03:18:49;;;;;;;22.95;5.78;;;;;;;4.56;75.35;103949.94;4976319;28;20472;-60
2022/01/18 03:21:15;;;;;;;21.92;5.40;;;;;;;4.59;75.47;103953.66;4980401;28;20501;-59
2022/01/18 03:23:40;;;;;;;24.55;5.68;;;;;;;4.59;75.75;103957.94;4979885;28;20050;-62
2022/01/18 03:26:14;;;;;;;25.08;5.80;;;;;;;4.60;75.57;103958.06;4961659;28;20390;-58
2022/01/18 03:28:41;;;;;;;14.55;4.88;;;;;;;4.64;75.13;103962.72;4966404;28;20052;-59
2022/01/18 03:31:06;;;;;;;23.38;5.35;;;;;;;4.67;75.38;103957.84;4973230;28;20057;-59
2022/01/18 03:33:32;;;;;;;14.80;5.07;;;;;;;4.71;75.52;103964.16;4975867;28;20077;-59
2022/01/18 03:35:58;;;;;;;15.80;4.68;;;;;;;4.73;75.65;103958.34;4974538;28;20497;-59
2022/01/18 03:38:30;;;;;;;17.85;4.97;;;;;;;4.78;75.62;103961.31;4965268;28;20442;-59
2022/01/18 03:41:01;;;;;;;17.90;5.07;;;;;;;4.78;75.38;103962.25;4980345;28;20085;-60
2022/01/18 03:43:28;;;;;;;15.85;4.63;;;;;;;4.78;76.03;103959.66;4972380;28;20420;-58
2022/01/18 03:46:00;;;;;;;18.67;5.03;;;;;;;4.76;75.51;103958.59;4960203;28;20076;-58
2022/01/18 03:48:30;;;;;;;20.98;5.20;;;;;;;4.76;75.29;103963.78;4983372;28;20123;-59
2022/01/18 03:50:56;;;;;;;18.23;4.78;;;;;;;4.76;75.68;103961.19;4978913;28;20116;-59
2022/01/18 03:53:22;;;;;;;20.27;4.80;;;;;;;4.75;75.58;103967.16;4979974;28;20066;-60
2022/01/18 03:55:48;;;;;;;17.25;4.47;;;;;;;4.77;75.56;103960.41;4975769;28;20510;-58
2022/01/18 03:58:13;;;;;;;13.32;4.10;;;;;;;4.77;75.13;103969.84;4974310;28;20840;-59
2022/01/18 04:00:39;;;;;;;14.35;4.22;;;;;;;4.71;75.57;103959.91;4980326;28;20034;-59
2022/01/18 04:03:04;;;;;;;18.10;4.80;;;;;;;4.68;75.65;103969.06;4958341;28;20076;-58
2022/01/18 04:05:30;;;;;;;16.45;4.72;;;;;;;4.63;75.24;103972.94;4983653;28;20446;-59
2022/01/18 04:07:55;;;;;;;15.00;4.47;;;;;;;4.62;75.19;103974.63;4979354;28;20038;-59
2022/01/18 04:10:21;;;;;;;13.25;4.40;;;;;;;4.64;75.29;103975.63;4955401;28;20042;-59
2022/01/18 04:12:46;;;;;;;15.73;4.40;;;;;;;4.68;75.48;103980.31;4978628;28;20053;-59
2022/01/18 04:15:13;;;;;;;14.88;4.20;;;;;;;4.70;75.38;103983.00;4976131;28;20650;-59
2022/01/18 04:28:43;;;;;;;14.85;3.65;;;;;;;4.77;75.94;103991.44;4972634;28;20721;-59
2022/01/18 04:31:09;;;;;;;18.27;4.40;;;;;;;4.77;75.82;103993.13;4979033;28;20721;-59
2022/01/18 04:33:35;;;;;;;13.10;4.40;;;;;;;4.78;75.89;103993.25;4982621;28;20084;-59
2022/01/18 04:36:01;;;;;;;16.83;3.97;;;;;;;4.79;75.48;103987.31;4958019;28;20046;-60
2022/01/18 04:38:26;;;;;;;16.33;3.95;;;;;;;4.80;75.93;103988.22;4956196;28;20224;-59
2022/01/18 04:40:52;;;;;;;15.40;3.70;;;;;;;4.79;75.86;103989.00;4981999;28;20056;-59
2022/01/18 04:43:39;;;;;;;13.05;4.20;;;;;;;4.79;75.46;103996.75;4963501;28;20386;-59
2022/01/18 04:48:49;;;;;;;11.02;3.78;;;;;;;4.85;75.96;103989.53;4978456;28;20065;-60
2022/01/18 04:51:14;;;;;;;14.18;4.45;;;;;;;4.79;75.58;103986.41;4975600;28;20309;-60
2022/01/18 04:53:47;;;;;;;15.10;4.30;;;;;;;4.75;75.58;103990.44;4978049;28;20081;-59
2022/01/18 04:56:16;;;;;;;13.90;4.05;;;;;;;4.74;75.45;103990.28;4976201;28;20290;-59
2022/01/18 04:58:42;;;;;;;14.38;4.30;;;;;;;4.75;75.82;103982.66;4974541;28;20452;-59
2022/01/18 05:01:09;;;;;;;15.32;3.88;;;;;;;4.74;75.90;103991.19;4964811;28;20073;-59
2022/01/18 05:03:34;;;;;;;12.57;3.75;;;;;;;4.75;75.78;103989.50;4981496;28;20045;-58
2022/01/18 05:06:07;;;;;;;12.02;4.20;;;;;;;4.74;75.76;103991.19;4974294;28;20152;-60
2022/01/18 05:08:32;;;;;;;15.38;4.00;;;;;;;4.77;75.57;103994.03;4982146;28;20042;-59
2022/01/18 05:10:59;;;;;;;14.25;3.80;;;;;;;4.79;75.58;103992.50;4984072;28;20065;-59
2022/01/18 05:16:19;;;;;;;10.18;3.25;;;;;;;4.93;75.70;103998.84;4984164;28;20412;-59
2022/01/18 05:21:33;;;;;;;13.05;3.53;;;;;;;4.98;75.72;103987.22;4986435;28;20471;-59
2022/01/18 05:23:59;;;;;;;12.60;3.80;;;;;;;4.99;75.78;103985.53;4977737;28;20044;-59
2022/01/18 05:26:25;;;;;;;16.70;4.40;;;;;;;5.01;75.64;103984.88;4977978;28;20245;-59
2022/01/18 05:28:51;;;;;;;11.05;3.55;;;;;;;5.05;75.71;103991.22;4973643;28;20116;-58
2022/01/18 05:31:17;;;;;;;13.02;3.55;;;;;;;5.08;76.19;103991.47;4967253;28;20204;-59
2022/01/18 05:33:43;;;;;;;13.07;4.03;;;;;;;5.06;76.10;103987.88;4978286;28;20042;-60
2022/01/18 05:36:09;;;;;;;11.80;3.80;;;;;;;5.06;76.10;103983.59;4965072;28;20041;-58
2022/01/18 05:38:35;;;;;;;11.95;3.63;;;;;;;5.06;75.75;103982.72;4983422;28;20555;-59
2022/01/18 05:41:03;;;;;;;12.88;4.07;;;;;;;5.03;75.96;103983.34;4963749;28;20489;-59
2022/01/18 05:43:28;;;;;;;10.48;3.70;;;;;;;5.01;76.16;103991.72;4968102;28;20619;-59
2022/01/18 05:45:53;;;;;;;11.10;3.47;;;;;;;4.96;75.81;103987.84;4981581;28;20809;-58
2022/01/18 05:48:19;;;;;;;11.45;3.70;;;;;;;4.92;75.66;103986.69;4979612;28;20065;-58
2022/01/18 05:50:44;;;;;;;11.15;3.90;;;;;;;4.90;75.80;103983.06;4986264;28;20129;-58
2022/01/18 05:53:10;;;;;;;12.57;4.13;;;;;;;4.94;75.57;103985.13;4977931;28;20037;-59
2022/01/18 05:55:35;;;;;;;10.70;4.05;;;;;;;4.92;75.88;103986.69;4974456;28;20119;-59
2022/01/18 05:58:00;;;;;;;13.48;4.40;;;;;;;4.88;75.85;103984.59;4981018;28;20050;-61
2022/01/18 06:00:27;;;;;;;14.35;4.40;;;;;;;4.84;75.76;103987.69;4951181;28;20424;-58
2022/01/18 06:08:05;;;;;;;16.88;5.13;;;;;;;4.80;75.74;103980.47;4973997;28;20036;-59
2022/01/18 06:10:31;;;;;;;15.43;5.15;;;;;;;4.77;76.13;103981.09;4984034;28;20042;-59
2022/01/18 06:12:56;;;;;;;13.45;5.35;;;;;;;4.79;75.44;103981.25;4978710;28;20341;-60
2022/01/18 06:15:22;;;;;;;15.63;5.38;;;;;;;4.74;76.03;103972.19;4981063;28;20209;-59
2022/01/18 06:17:47;;;;;;;14.18;4.72;;;;;;;4.69;75.69;103970.91;4965564;28;20109;-59
2022/01/18 06:20:13;;;;;;;17.25;5.35;;;;;;;4.67;76.14;103977.59;4961645;28;20495;-59
2022/01/18 06:22:38;;;;;;;14.93;5.50;;;;;;;4.66;75.86;103974.09;4979919;28;20413;-60
2022/01/18 06:25:05;;;;;;;17.10;5.57;;;;;;;4.67;76.18;103968.16;4981783;28;20362;-59
2022/01/18 06:27:31;;;;;;;16.58;5.38;;;;;;;4.67;76.19;103977.59;4978426;28;20048;-59
2022/01/18 06:29:57;;;;;;;13.82;5.55;;;;;;;4.69;76.26;103978.66;4970921;28;20712;-59
2022/01/18 06:32:22;;;;;;;18.30;5.50;;;;;;;4.68;76.13;103980.31;4980366;28;20046;-60
2022/01/18 06:34:47;;;;;;;15.50;5.35;;;;;;;4.67;75.83;103975.91;4975546;28;20061;-59
2022/01/18 06:37:13;;;;;;;14.63;5.25;;;;;;;4.66;75.95;103978.38;4980178;28;20439;-59
2022/01/18 06:39:38;;;;;;;20.52;5.55;;;;;;;4.62;76.27;103981.47;4979547;28;20056;-59
2022/01/18 06:42:04;;;;;;;14.93;5.15;;;;;;;4.61;75.88;103985.72;4978028;28;20053;-60
2022/01/18 06:44:30;;;;;;;12.57;5.22;;;;;;;4.63;75.78;103988.44;4979193;28;20077;-58
2022/01/18 06:46:55;;;;;;;14.30;4.95;;;;;;;4.66;76.47;103992.19;4978065;28;20042;-59
2022/01/18 06:49:21;;;;;;;14.82;5.07;;;;;;;4.70;76.32;103986.50;4984010;28;20061;-61
2022/01/18 06:51:46;;;;;;;13.63;5.03;;;;;;;4.68;76.13;103982.91;4974694;28;20193;-59
2022/01/18 06:54:15;;;;;;;16.13;5.45;;;;;;;4.69;76.27;103979.56;4974610;28;20413;-59
2022/01/18 06:56:47;;;;;;;13.63;5.55;;;;;;;4.71;76.10;103990.00;4974506;28;20165;-59
2022/01/18 06:59:13;;;;;;;14.40;5.53;;;;;;;4.73;76.37;103985.88;4969901;28;20507;-59
2022/01/18 07:01:39;;;;;;;15.50;5.15;;;;;;;4.75;76.36;103985.25;4979495;28;20050;-59
2022/01/18 07:04:05;;;;;;;19.58;5.18;;;;;;;4.77;76.01;103982.78;4969042;28;20038;-59
2022/01/18 07:06:31;;;;;;;15.43;5.18;;;;;;;4.76;76.21;103987.03;4977992;28;20045;-60
2022/01/18 07:08:56;;;;;;;15.77;4.85;;;;;;;4.77;76.41;103981.09;4983565;28;20046;-59
2022/01/18 07:11:22;;;;;;;15.13;4.90;;;;;;;4.81;76.31;103979.69;4976348;28;20316;-59
2022/01/18 07:13:47;;;;;;;10.93;4.85;;;;;;;4.82;75.83;103992.72;4965002;28;20113;-59
2022/01/18 07:16:13;;;;;;;10.35;4.20;;;;;;;4.84;76.05;103993.78;4973665;28;20046;-60
2022/01/18 07:18:39;;;;;;;23.05;4.57;;;;;;;4.85;76.08;103987.84;4981135;28;20143;-61
2022/01/18 07:21:05;;;;;;;9.20;4.13;;;;;;;4.88;75.83;103992.34;4977154;28;20409;-61
2022/01/18 07:23:31;;;;;;;13.23;4.45;;;;;;;4.83;75.86;103993.63;4979161;28;20497;-58
2022/01/18 07:25:56;;;;;;;15.45;5.05;;;;;;;4.83;76.17;103998.81;4977795;28;20100;-60
2022/01/18 07:28:22;;;;;;;18.05;4.65;;;;;;;4.80;75.80;104001.16;4957095;28;20523;-59
2022/01/18 07:30:48;;;;;;;24.35;5.22;;;;;;;4.80;76.31;103994.31;4981689;28;20049;-60
2022/01/18 07:33:14;;;;;;;18.20;4.43;;;;;;;4.78;75.86;103995.84;4979806;28;20512;-59
2022/01/18 07:35:41;;;;;;;25.23;4.97;;;;;;;4.77;76.43;103996.59;4976499;28;20041;-59
2022/01/18 07:38:12;;;;;;;19.00;4.82;;;;;;;4.79;75.85;104008.00;4973763;28;20133;-58
2022/01/18 07:40:38;;;;;;;22.45;4.15;;;;;;;4.78;75.96;104010.44;4983240;28;20042;-60
2022/01/18 07:43:04;;;;;;;10.40;4.35;;;;;;;4.76;76.29;104011.97;4980188;28;20053;-61
2022/01/18 07:45:30;;;;;;;16.90;4.88;;;;;;;4.77;75.90;104004.34;4976707;28;20053;-60
2022/01/18 07:47:55;;;;;;;11.82;4.20;;;;;;;4.77;76.21;104004.34;4977094;28;20026;-61
2022/01/18 07:50:21;;;;;;;12.90;4.20;;;;;;;4.79;76.23;104001.91;4979035;28;20061;-60
2022/01/18 07:52:46;;;;;;;9.93;4.22;;;;;;;4.78;76.26;104010.44;4968768;28;20131;-59
2022/01/18 07:55:12;;;;;;;23.73;4.15;;;;;;;4.79;76.21;104020.91;4976332;28;20534;-59
2022/01/18 07:57:41;;;;;;;9.40;4.03;;;;;;;4.84;76.78;104016.13;4976942;28;20044;-59
2022/01/18 08:00:11;;;;;;;9.40;3.97;;;;;;;4.87;76.58;104017.31;4969404;28;20069;-60
2022/01/18 08:02:37;;;;;;;12.05;3.97;;;;;;;4.96;76.39;104011.13;4979475;28;20072;-59
2022/01/18 08:05:06;;;;;;;7.68;3.55;;;;;;;5.05;76.50;104020.59;4978786;28;20069;-59
2022/01/18 08:07:33;;;;;;;9.48;3.67;;;;;;;5.10;76.36;104019.28;4975191;28;20045;-60
2022/01/18 08:09:58;;;;;;;7.82;3.55;;;;;;;5.16;76.53;104021.50;4970544;28;20108;-60
2022/01/18 08:12:24;;;;;;;9.38;3.75;;;;;;;5.23;76.33;104014.41;4982935;28;20042;-60
2022/01/18 08:14:50;;;;;;;10.05;4.05;;;;;;;5.30;76.41;104024.50;4962679;28;20975;-60
2022/01/18 08:17:16;;;;;;;13.38;4.28;;;;;;;5.38;76.40;104019.94;4980231;28;20030;-61
2022/01/18 08:19:42;;;;;;;13.88;5.05;;;;;;;5.48;76.33;104019.97;4976271;28;20046;-59
2022/01/18 08:22:09;;;;;;;19.10;5.57;;;;;;;5.53;76.36;104015.16;4973063;28;20060;-60
2022/01/18 08:24:35;;;;;;;20.75;5.72;;;;;;;5.59;76.26;104021.75;4981161;28;20334;-60
2022/01/18 08:27:00;;;;;;;14.77;6.18;;;;;;;5.67;76.48;104014.63;4954762;28;20045;-59
2022/01/18 08:29:25;;;;;;;17.13;6.20;;;;;;;5.73;76.02;104012.56;4976716;28;20406;-60
2022/01/18 08:31:51;;;;;;;47.28;6.70;;;;;;;5.77;76.27;104016.28;4960525;28;20438;-58
2022/01/18 08:34:16;;;;;;;42.92;6.80;;;;;;;5.85;76.18;104023.03;4972080;28;20123;-58
2022/01/18 08:36:42;;;;;;;21.10;6.32;;;;;;;5.90;76.09;104029.50;4973502;28;20042;-59
2022/01/18 08:39:08;;;;;;;56.72;6.70;;;;;;;5.92;76.17;104030.53;4979156;28;20053;-59
2022/01/18 08:41:34;;;;;;;28.83;6.80;;;;;;;5.97;75.98;104024.97;4974307;28;20160;-60
2022/01/18 08:43:59;;;;;;;17.02;6.25;;;;;;;6.03;75.96;104030.66;4939539;28;20044;-59
2022/01/18 08:46:28;;;;;;;17.35;5.95;;;;;;;6.02;76.07;104035.69;4970074;28;20073;-58
2022/01/18 08:48:54;;;;;;;15.13;6.47;;;;;;;6.08;75.72;104042.28;4984142;28;20682;-58
2022/01/18 08:51:19;;;;;;;24.30;7.28;;;;;;;6.13;76.06;104037.47;4962884;28;20057;-59
2022/01/18 08:53:48;;;;;;;14.45;6.50;;;;;;;6.14;75.82;104038.38;4974876;28;20042;-59
2022/01/18 08:56:16;;;;;;;28.13;7.97;;;;;;;6.01;75.99;104039.97;4967192;28;20049;-59
2022/01/18 08:58:41;;;;;;;18.95;7.90;;;;;;;6.16;75.84;104042.00;4980794;28;20463;-59
2022/01/18 09:01:07;;;;;;;26.40;8.15;;;;;;;6.16;75.67;104036.84;4981539;28;20230;-59
2022/01/18 09:03:32;;;;;;;28.23;7.90;;;;;;;6.20;75.84;104028.50;4974608;28;20538;-59
2022/01/18 09:05:58;;;;;;;44.20;8.35;;;;;;;6.19;75.80;104032.78;4976381;28;20034;-61
2022/01/18 09:08:24;;;;;;;36.75;8.32;;;;;;;6.26;75.97;104034.19;4982939;28;20500;-59
2022/01/18 09:10:49;;;;;;;37.50;8.80;;;;;;;6.36;75.82;104041.91;4980900;28;20581;-59
2022/01/18 09:13:15;;;;;;;32.47;8.27;;;;;;;6.40;75.75;104036.22;4983521;28;20060;-59
2022/01/18 09:15:43;;;;;;;42.60;8.38;;;;;;;6.49;75.86;104030.09;4978631;28;20419;-59
2022/01/18 09:18:09;;;;;;;47.85;8.43;;;;;;;6.46;76.00;104026.34;4976099;28;20326;-59
2022/01/18 09:20:34;;;;;;;34.53;7.45;;;;;;;6.59;75.77;104029.13;4976947;28;20073;-60
2022/01/18 09:23:00;;;;;;;36.80;8.13;;;;;;;6.66;75.82;104034.00;4975848;28;20072;-59
2022/01/18 09:25:27;;;;;;;40.33;7.80;;;;;;;6.73;75.56;104038.91;4979657;28;20346;-58
2022/01/18 09:27:55;;;;;;;32.22;7.18;;;;;;;6.66;75.54;104036.59;4964586;28;20153;-58
2022/01/18 09:30:25;;;;;;;26.25;6.85;;;;;;;6.74;75.44;104034.63;4981481;28;20192;-59
2022/01/18 09:32:50;;;;;;;41.40;7.40;;;;;;;6.75;75.08;104034.75;4963697;28;20072;-59
2022/01/18 09:35:16;;;;;;;22.60;6.97;;;;;;;6.80;75.35;104037.69;4967024;28;20038;-58
2022/01/18 09:37:43;;;;;;;50.10;7.28;;;;;;;6.64;75.21;104035.59;4971101;28;20048;-58
2022/01/18 09:40:09;;;;;;;23.08;6.72;;;;;;;6.68;75.40;104035.03;4971668;28;20038;-59
2022/01/18 09:42:38;;;;;;;17.88;6.50;;;;;;;6.76;74.99;104036.56;4985047;28;20049;-59
2022/01/18 09:45:07;;;;;;;29.10;6.50;;;;;;;6.82;74.86;104036.16;4945744;28;20116;-59
2022/01/18 09:47:34;;;;;;;29.95;6.60;;;;;;;6.84;75.16;104034.56;4979159;28;20045;-58
2022/01/18 09:49:59;;;;;;;24.08;6.70;;;;;;;6.83;75.29;104035.38;4971563;28;20068;-62
2022/01/18 09:52:25;;;;;;;40.05;6.90;;;;;;;6.80;75.04;104036.00;4976284;28;20137;-60
2022/01/18 09:54:51;;;;;;;37.17;7.43;;;;;;;6.79;75.21;104039.38;4960905;28;20247;-57
2022/01/18 09:57:16;;;;;;;38.08;7.47;;;;;;;6.80;75.08;104043.78;4964347;28;20073;-59
2022/01/18 09:59:41;;;;;;;42.53;7.80;;;;;;;6.92;75.36;104041.25;4978434;28;20026;-59
2022/01/18 10:02:10;;;;;;;49.47;7.68;;;;;;;7.02;75.33;104042.88;4970812;28;20483;-59
2022/01/18 10:04:43;;;;;;;71.03;8.55;;;;;;;7.07;75.35;104039.88;4958693;28;20048;-58
2022/01/18 10:07:09;;;;;;;68.82;8.43;;;;;;;7.04;75.04;104044.81;4962092;28;20549;-57
2022/01/18 10:09:35;;;;;;;97.20;9.60;;;;;;;7.09;75.37;104038.28;4976119;28;20053;-58
2022/01/18 10:12:08;;;;;;;61.70;9.30;;;;;;;7.09;75.47;104040.88;4965792;28;20034;-59
2022/01/18 10:14:35;;;;;;;87.32;10.05;;;;;;;7.14;75.57;104039.53;4979246;28;20088;-59
2022/01/18 10:17:00;;;;;;;46.92;10.10;;;;;;;7.31;75.55;104035.69;4962059;28;20050;-59
2022/01/18 10:19:38;;;;;;;35.35;9.88;;;;;;;7.43;75.77;104040.91;4978722;28;20485;-57
2022/01/18 10:22:15;;;;;;;54.83;9.88;;;;;;;7.50;75.31;104038.88;4963327;28;20563;-59
2022/01/18 10:24:42;;;;;;;108.20;10.35;;;;;;;7.37;75.45;104038.75;4978944;28;20088;-59
2022/01/18 10:27:08;;;;;;;36.00;9.90;;;;;;;7.60;75.47;104036.19;4969527;28;20337;-58
2022/01/18 10:29:45;;;;;;;67.90;10.15;;;;;;;7.67;75.16;104041.06;4976064;28;20556;-58
2022/01/18 10:32:19;;;;;;;52.45;10.00;;;;;;;7.72;74.65;104042.31;4970758;28;20053;-60
2022/01/18 10:37:22;;;;;;;98.60;12.20;;;;;;;7.72;74.96;104042.31;4979803;28;20053;-60
2022/01/18 10:39:53;;;;;;;49.05;11.93;;;;;;;7.81;74.46;104038.63;4976688;28;20273;-58
2022/01/18 10:42:38;;;;;;;45.50;12.25;;;;;;;7.79;74.74;104032.38;4972031;28;21606;-60
2022/01/18 10:45:09;;;;;;;57.42;12.45;;;;;;;7.79;74.73;104038.50;4977933;28;20133;-58
2022/01/18 10:47:36;;;;;;;67.15;12.75;;;;;;;7.86;74.65;104037.25;4975899;28;20049;-58
2022/01/18 10:50:10;;;;;;;46.15;12.95;;;;;;;7.86;74.21;104043.34;4972846;28;20449;-60
2022/01/18 10:52:35;;;;;;;67.80;13.35;;;;;;;7.86;74.61;104038.16;4962580;28;20666;-59
2022/01/18 10:55:01;;;;;;;58.42;13.02;;;;;;;7.98;74.41;104039.06;4980886;28;20034;-59
2022/01/18 10:57:29;;;;;;;35.17;13.35;;;;;;;8.06;74.74;104037.00;4979360;28;20563;-59
2022/01/18 11:00:06;;;;;;;58.88;14.00;;;;;;;8.06;74.85;104045.72;4971068;28;20501;-58
2022/01/18 11:02:36;;;;;;;67.85;14.75;;;;;;;8.05;74.78;104043.03;4976584;28;20875;-60
2022/01/18 11:05:18;;;;;;;66.13;12.02;;;;;;;8.02;74.35;104038.50;4978878;28;20046;-58
2022/01/18 11:07:45;;;;;;;59.05;11.35;;;;;;;8.11;74.42;104025.28;4981031;28;20041;-59
2022/01/18 11:10:12;;;;;;;106.88;11.73;;;;;;;8.08;74.42;104022.44;4971011;28;20544;-58
2022/01/18 11:12:53;;;;;;;89.57;11.30;;;;;;;8.03;74.25;104022.13;4980066;28;20389;-59
2022/01/18 11:15:22;;;;;;;57.45;10.80;;;;;;;7.93;74.28;104021.34;4981194;28;20041;-59
2022/01/18 11:17:51;;;;;;;57.88;12.43;;;;;;;8.02;74.54;104022.91;4977544;28;20037;-58
2022/01/18 11:20:19;;;;;;;113.20;12.88;;;;;;;7.93;74.09;104023.94;4963708;28;20128;-59
2022/01/18 11:22:47;;;;;;;54.50;12.18;;;;;;;8.02;74.47;104016.81;4980782;28;20456;-59
2022/01/18 11:25:17;;;;;;;80.60;12.40;;;;;;;7.98;74.52;104023.47;4979788;28;20049;-59
2022/01/18 11:27:47;;;;;;;72.65;13.48;;;;;;;8.02;74.29;104020.31;4980135;28;20042;-59
2022/01/18 11:30:13;;;;;;;53.30;13.88;;;;;;;8.04;74.46;104020.44;4973959;28;20075;-59
2022/01/18 11:32:39;;;;;;;55.85;14.00;;;;;;;8.01;74.66;104010.69;4978476;28;20513;-59
2022/01/18 11:35:04;;;;;;;55.92;14.43;;;;;;;8.16;74.74;104010.94;4964704;28;20049;-58
2022/01/18 11:37:57;;;;;;;44.70;14.50;;;;;;;8.11;74.99;104010.56;4961603;28;20046;-59
2022/01/18 11:40:23;;;;;;;50.08;14.63;;;;;;;8.21;74.95;104012.16;4976400;28;20393;-59
2022/01/18 11:42:52;;;;;;;57.50;14.63;;;;;;;8.17;74.63;104006.66;4960006;28;20048;-58
2022/01/18 11:45:29;;;;;;;38.22;11.88;;;;;;;8.22;74.74;104001.00;4971227;28;20046;-59
2022/01/18 11:48:31;;;;;;;44.63;12.02;;;;;;;8.29;74.75;103999.75;4970412;28;20143;-58
2022/01/18 11:51:05;;;;;;;61.38;12.80;;;;;;;8.03;75.08;104003.94;4945830;28;20050;-58
2022/01/18 11:53:44;;;;;;;55.30;13.18;;;;;;;8.14;74.96;103997.81;4973774;28;20143;-57
2022/01/18 11:56:15;;;;;;;58.20;12.55;;;;;;;8.26;74.28;104000.41;4972581;28;20049;-59
2022/01/18 11:58:43;;;;;;;53.17;13.07;;;;;;;8.35;74.54;104005.41;4979883;28;20053;-59
2022/01/18 12:01:09;;;;;;;52.97;13.85;;;;;;;8.34;74.48;103994.09;4954442;28;20049;-59
2022/01/18 12:03:47;;;;;;;51.63;13.95;;;;;;;8.40;74.23;103996.25;4962360;28;20195;-60
2022/01/18 12:06:13;;;;;;;55.65;14.32;;;;;;;8.40;74.18;103994.53;4968611;28;20458;-59
2022/01/18 12:08:43;;;;;;;46.28;13.93;;;;;;;8.47;73.83;103982.91;4982594;28;20057;-59
2022/01/18 12:11:19;;;;;;;73.85;15.20;;;;;;;8.30;74.30;103985.91;4981364;28;21702;-60
2022/01/18 12:13:45;;;;;;;66.47;15.55;;;;;;;8.39;74.16;103991.84;4963425;28;20104;-60
2022/01/18 12:16:22;;;;;;;80.53;16.23;;;;;;;8.38;73.87;103984.81;4955031;28;20038;-58
2022/01/18 12:18:51;;;;;;;66.85;16.15;;;;;;;8.43;74.41;103976.56;4969475;28;20053;-59
2022/01/18 12:21:20;;;;;;;74.55;16.20;;;;;;;8.59;73.60;103969.84;4984350;28;20033;-59
2022/01/18 12:23:45;;;;;;;60.70;16.27;;;;;;;8.51;73.77;103972.81;4973989;28;20259;-59
2022/01/18 12:26:39;;;;;;;63.10;14.60;;;;;;;8.60;73.45;103982.06;4972270;28;20388;-60
2022/01/18 12:34:30;;;;;;;58.78;15.30;;;;;;;8.68;74.31;103975.69;4976327;28;20520;-59